createdAt,value
2023-04-17T00:01:43.245Z,100760.55
2023-04-17T00:06:46.527Z,100759.67
2023-04-17T00:11:52.970Z,100759.46
2023-04-17T00:16:56.668Z,100754.59
2023-04-17T00:22:00.268Z,100755.62
2023-04-17T00:27:03.501Z,100751.05
2023-04-17T00:32:16.824Z,100747.05
2023-04-17T00:37:20.256Z,100754.04
2023-04-17T00:42:23.802Z,100751.94
2023-04-17T00:47:27.766Z,100758.73
2023-04-17T00:52:44.261Z,100761.48
2023-04-17T00:57:50.778Z,100760.95
2023-04-17T01:02:57.961Z,100768.23
2023-04-17T01:08:03.772Z,100770.98
2023-04-17T01:13:09.070Z,100770.59
2023-04-17T01:18:12.997Z,100776.52
2023-04-17T01:23:16.579Z,100770.77
2023-04-17T01:28:20.172Z,100780.01
2023-04-17T01:33:23.960Z,100776.00
2023-04-17T01:38:27.389Z,100780.71
2023-04-17T01:43:50.492Z,100780.38
2023-04-17T01:48:54.527Z,100783.00
2023-04-17T01:53:57.851Z,100779.69
2023-04-17T01:59:01.566Z,100780.56
2023-04-17T02:04:05.566Z,100782.64
2023-04-17T02:09:09.825Z,100785.23
2023-04-17T02:14:18.206Z,100785.23
2023-04-17T02:19:25.116Z,100789.43
2023-04-17T02:24:28.647Z,100785.95
2023-04-17T02:29:41.812Z,100792.23
2023-04-17T02:34:45.554Z,100795.74
2023-04-17T02:39:49.807Z,100793.01
2023-04-17T02:45:06.577Z,100795.79
2023-04-17T02:50:11.228Z,100793.34
2023-04-17T02:55:48.472Z,100796.84
2023-04-17T03:01:01.554Z,100798.82
2023-04-17T03:06:05.945Z,100796.53
2023-04-17T03:11:13.026Z,100799.59
2023-04-17T03:16:16.995Z,100809.29
2023-04-17T03:21:24.089Z,100811.50
2023-04-17T03:26:27.930Z,100819.77
2023-04-17T03:31:31.933Z,100822.76
2023-04-17T03:36:36.446Z,100822.38
2023-04-17T03:41:41.025Z,100821.84
2023-04-17T03:46:46.550Z,100824.02
2023-04-17T03:52:13.692Z,100826.88
2023-04-17T03:57:20.706Z,100833.76
2023-04-17T04:02:25.836Z,100840.33
2023-04-17T04:07:30.790Z,100839.23
2023-04-17T04:12:57.479Z,100847.20
2023-04-17T04:18:24.436Z,100859.16
2023-04-17T04:23:30.857Z,100866.08
2023-04-17T04:28:34.471Z,100871.27
2023-04-17T04:33:37.871Z,100874.57
2023-04-17T04:38:45.743Z,100875.95
2023-04-17T04:43:56.551Z,100878.73
2023-04-17T04:49:00.556Z,100880.82
2023-04-17T04:54:04.836Z,100882.87
2023-04-17T04:59:10.299Z,100887.02
2023-04-17T05:04:16.022Z,100886.99
2023-04-17T05:09:51.350Z,100887.16
2023-04-17T05:14:54.856Z,100889.03
2023-04-17T05:19:59.177Z,100892.45
2023-04-17T05:25:27.746Z,100895.71
2023-04-17T05:30:35.252Z,100896.73
2023-04-17T05:35:52.914Z,100898.77
2023-04-17T05:41:01.809Z,100896.07
2023-04-17T05:46:05.325Z,100897.92
2023-04-17T05:51:09.331Z,100901.15
2023-04-17T05:56:12.743Z,100901.21
2023-04-17T06:01:18.271Z,100895.14
2023-04-17T06:06:22.095Z,100898.16
2023-04-17T06:11:25.781Z,100905.67
2023-04-17T06:16:37.288Z,100901.77
2023-04-17T06:21:40.997Z,100906.38
2023-04-17T06:26:44.413Z,100907.64
2023-04-17T06:31:47.793Z,100909.15
2023-04-17T06:36:53.660Z,100910.02
2023-04-17T06:42:17.410Z,100914.48
2023-04-17T06:47:21.088Z,100914.75
2023-04-17T06:52:27.182Z,100918.31
2023-04-17T06:57:30.731Z,100920.27
2023-04-17T07:02:34.327Z,100925.85
2023-04-17T07:07:38.048Z,100932.14
2023-04-17T07:12:43.971Z,100938.80
2023-04-17T07:17:47.386Z,100941.80
2023-04-17T07:22:51.181Z,100935.61
2023-04-17T07:27:55.171Z,100944.17
2023-04-17T07:32:58.862Z,100946.52
2023-04-17T07:38:04.118Z,100953.05
2023-04-17T07:43:07.434Z,100948.77
2023-04-17T07:48:11.186Z,100950.52
2023-04-17T07:53:14.777Z,100962.56
2023-04-17T07:58:18.329Z,100965.39
2023-04-17T08:03:31.931Z,100968.68
2023-04-17T08:08:35.484Z,100966.59
2023-04-17T08:13:38.770Z,100975.04
2023-04-17T08:18:42.239Z,100976.40
2023-04-17T08:23:45.784Z,100977.67
2023-04-17T08:28:53.836Z,100979.45
2023-04-17T08:34:06.528Z,100981.51
2023-04-17T08:39:33.194Z,100983.64
2023-04-17T08:44:39.777Z,100991.56
2023-04-17T08:49:44.107Z,100992.50
2023-04-17T08:54:50.981Z,100989.55
2023-04-17T08:59:54.827Z,100997.28
2023-04-17T09:05:09.797Z,101002.45
2023-04-17T09:10:13.142Z,101004.99
2023-04-17T09:15:17.246Z,101008.34
2023-04-17T09:20:21.259Z,101010.89
2023-04-17T09:25:28.344Z,101013.62
2023-04-17T09:30:37.433Z,101022.17
2023-04-17T09:35:41.046Z,101022.90
2023-04-17T09:40:46.949Z,101019.54
2023-04-17T09:45:52.503Z,101020.20
2023-04-17T09:50:56.994Z,101022.62
2023-04-17T09:56:01.755Z,101022.85
2023-04-17T10:01:05.932Z,101020.33
2023-04-17T10:06:09.730Z,101023.16
2023-04-17T10:11:13.802Z,101025.21
2023-04-17T10:16:17.223Z,101027.06
2023-04-17T10:21:22.721Z,101025.77
2023-04-17T10:26:26.049Z,101020.90
2023-04-17T10:32:07.669Z,101021.71
2023-04-17T10:37:15.562Z,101014.59
2023-04-17T10:42:21.111Z,101006.39
2023-04-17T10:47:32.229Z,101003.55
2023-04-17T10:52:42.016Z,101005.06
2023-04-17T10:58:13.204Z,101003.89
2023-04-17T11:03:17.526Z,100997.56
2023-04-17T11:08:22.541Z,100999.66
2023-04-17T11:13:26.009Z,100996.32
2023-04-17T11:18:29.709Z,100994.67
2023-04-17T11:23:36.410Z,100993.46
2023-04-17T11:28:39.834Z,100992.58
2023-04-17T11:33:43.441Z,100991.79
2023-04-17T11:38:48.588Z,100989.63
2023-04-17T11:43:52.101Z,100994.73
2023-04-17T11:48:55.408Z,100991.62
2023-04-17T11:53:59.646Z,100991.23
2023-04-17T11:59:05.133Z,100991.88
2023-04-17T12:04:21.216Z,100992.11
2023-04-17T12:09:28.273Z,100990.28
2023-04-17T12:14:32.443Z,100994.27
2023-04-17T12:19:35.862Z,100997.30
2023-04-17T12:24:39.265Z,101001.34
2023-04-17T12:29:44.726Z,101000.58
2023-04-17T12:34:48.925Z,101003.95
2023-04-17T12:39:52.297Z,101008.27
2023-04-17T12:44:55.774Z,101007.99
2023-04-17T12:49:59.365Z,101007.47
2023-04-17T12:55:04.152Z,101006.96
2023-04-17T13:00:10.959Z,101008.95
2023-04-17T13:05:14.240Z,101010.23
2023-04-17T13:10:20.510Z,101010.61
2023-04-17T13:15:27.005Z,101007.00
2023-04-17T13:20:30.388Z,101004.10
2023-04-17T13:25:33.850Z,101004.67
2023-04-17T13:30:37.835Z,101003.46
2023-04-17T13:35:41.573Z,101008.19
2023-04-17T13:40:45.122Z,101006.20
2023-04-17T13:45:49.835Z,101010.63
2023-04-17T13:50:54.598Z,101011.20
2023-04-17T13:55:57.806Z,101016.86
2023-04-17T14:01:01.078Z,101016.27
2023-04-17T14:06:07.238Z,101014.80
2023-04-17T14:11:11.098Z,101011.16
2023-04-17T14:16:19.181Z,101016.11
2023-04-17T14:21:22.695Z,101015.07
2023-04-17T14:26:28.715Z,101015.92
2023-04-17T14:31:32.269Z,101013.77
2023-04-17T14:36:35.980Z,101012.63
2023-04-17T14:41:39.570Z,101016.81
2023-04-17T14:46:43.434Z,101014.18
2023-04-17T14:51:46.951Z,101007.77
2023-04-17T14:56:50.736Z,101007.77
2023-04-17T15:01:54.457Z,101012.50
2023-04-17T15:07:10.153Z,101015.32
2023-04-17T15:12:13.644Z,101013.48
2023-04-17T15:17:17.299Z,101018.99
2023-04-17T15:22:20.766Z,101019.17
2023-04-17T15:27:24.677Z,101018.79
2023-04-17T15:32:28.062Z,101014.52
2023-04-17T15:37:31.301Z,101016.98
2023-04-17T15:42:36.947Z,101020.88
2023-04-17T15:47:40.572Z,101018.72
2023-04-17T15:52:44.640Z,101023.20
2023-04-17T15:57:48.042Z,101023.15
2023-04-17T16:02:52.148Z,101025.21
2023-04-17T16:07:55.941Z,101029.38
2023-04-17T16:12:59.183Z,101030.34
2023-04-17T16:18:02.458Z,101031.02
2023-04-17T16:23:05.916Z,101033.73
2023-04-17T16:28:09.249Z,101034.16
2023-04-17T16:33:12.745Z,101043.60
2023-04-17T16:38:16.265Z,101044.20
2023-04-17T16:43:19.817Z,101041.96
2023-04-17T16:48:23.298Z,101047.46
2023-04-17T16:53:26.669Z,101046.33
2023-04-17T16:58:30.079Z,101052.95
2023-04-17T17:03:33.953Z,101064.05
2023-04-17T17:08:37.164Z,101070.07
2023-04-17T17:13:50.394Z,101072.91
2023-04-17T17:18:54.541Z,101076.03
2023-04-17T17:23:58.988Z,101078.27
2023-04-17T17:29:02.597Z,101087.25
2023-04-17T17:34:22.508Z,101091.64
2023-04-17T17:39:29.265Z,101093.25
2023-04-17T17:44:32.855Z,101101.69
2023-04-17T17:49:36.193Z,101107.14
2023-04-17T17:54:39.889Z,101113.90
2023-04-17T17:59:44.047Z,101115.09
2023-04-17T18:04:47.531Z,101114.75
2023-04-17T18:09:56.709Z,101116.52
2023-04-17T18:15:00.191Z,101119.60
2023-04-17T18:20:03.849Z,101120.26
2023-04-17T18:25:27.748Z,101123.14
2023-04-17T18:30:31.673Z,101123.73
2023-04-17T18:35:35.596Z,101131.50
2023-04-17T18:40:39.378Z,101142.58
2023-04-17T18:45:42.981Z,101145.10
2023-04-17T18:50:46.833Z,101148.79
2023-04-17T18:55:59.444Z,101147.66
2023-04-17T19:01:05.395Z,101147.74
2023-04-17T19:06:12.629Z,101150.45
2023-04-17T19:11:16.211Z,101153.84
2023-04-17T19:16:19.534Z,101151.77
2023-04-17T19:21:23.223Z,101153.58
2023-04-17T19:26:26.907Z,101154.48
2023-04-17T19:31:31.882Z,101154.62
2023-04-17T19:36:36.027Z,101155.27
2023-04-17T19:41:40.236Z,101157.65
2023-04-17T19:46:43.482Z,101162.45
2023-04-17T19:51:46.615Z,101155.86
2023-04-17T19:57:10.380Z,101155.21
2023-04-17T20:02:14.078Z,101154.86
2023-04-17T20:13:13.853Z,101160.31
2023-04-17T20:18:17.920Z,101160.19
2023-04-17T20:23:21.886Z,101161.67
2023-04-17T20:28:25.103Z,101164.02
2023-04-17T20:34:02.864Z,101164.46
2023-04-17T20:39:12.942Z,101169.94
2023-04-17T20:44:16.625Z,101171.36
2023-04-17T20:49:20.141Z,101174.31
2023-04-17T20:54:26.390Z,101169.86
2023-04-17T20:59:37.371Z,101167.14
2023-04-17T21:04:40.928Z,101178.03
2023-04-17T21:09:44.172Z,101186.61
2023-04-17T21:14:47.431Z,101185.77
2023-04-17T21:20:21.764Z,101187.88
2023-04-17T21:26:36.740Z,101192.98
2023-04-17T21:32:07.235Z,101196.70
2023-04-17T21:37:36.203Z,101199.18
2023-04-17T21:42:42.861Z,101194.33
2023-04-17T21:47:46.325Z,101192.45
2023-04-17T21:52:50.178Z,101192.30
2023-04-17T21:57:53.484Z,101192.86
2023-04-17T22:02:56.946Z,101192.42
2023-04-17T22:08:01.532Z,101187.63
2023-04-17T22:13:05.544Z,101185.57
2023-04-17T22:18:09.035Z,101189.63
2023-04-17T22:23:12.521Z,101193.91
2023-04-17T22:28:16.507Z,101193.95
2023-04-17T22:33:39.920Z,101193.15
2023-04-17T22:39:03.816Z,101197.92
2023-04-17T22:44:07.326Z,101195.25
2023-04-17T22:49:10.613Z,101192.92
2023-04-17T22:54:22.149Z,101191.06
2023-04-17T22:59:26.966Z,101191.12
2023-04-17T23:04:53.265Z,101194.10
2023-04-17T23:10:38.852Z,101193.25
2023-04-17T23:15:42.850Z,101194.33
2023-04-17T23:21:06.628Z,101187.77
2023-04-17T23:26:20.131Z,101185.02
2023-04-17T23:31:23.656Z,101189.23
2023-04-17T23:36:27.088Z,101185.92
2023-04-17T23:42:11.085Z,101186.62
2023-04-17T23:47:14.442Z,101182.27
2023-04-17T23:52:19.471Z,101184.02
2023-04-17T23:57:22.832Z,101180.55
